createdAt,value
2023-05-15T00:01:20.173Z,31.80
2023-05-15T00:03:48.286Z,31.23
2023-05-15T00:06:17.462Z,30.73
2023-05-15T00:08:47.010Z,30.85
2023-05-15T00:11:14.358Z,28.92
2023-05-15T00:13:44.573Z,32.05
2023-05-15T00:16:12.204Z,32.88
2023-05-15T00:18:39.829Z,32.05
2023-05-15T00:21:07.373Z,27.73
2023-05-15T00:23:36.484Z,31.83
2023-05-15T00:26:03.990Z,30.10
2023-05-15T00:28:31.359Z,32.03
2023-05-15T00:30:58.713Z,33.08
2023-05-15T00:33:26.489Z,32.83
2023-05-15T00:35:53.775Z,35.55
2023-05-15T00:38:21.229Z,35.78
2023-05-15T00:40:48.712Z,36.85
2023-05-15T00:43:16.134Z,43.53
2023-05-15T00:45:43.605Z,34.60
2023-05-15T00:48:11.174Z,36.78
2023-05-15T00:50:41.606Z,33.67
2023-05-15T00:53:09.253Z,33.95
2023-05-15T00:55:36.934Z,29.70
2023-05-15T00:58:04.386Z,31.20
2023-05-15T01:00:33.119Z,25.83
2023-05-15T01:03:01.978Z,27.00
2023-05-15T01:05:30.312Z,28.25
2023-05-15T01:08:08.844Z,27.23
2023-05-15T01:10:36.341Z,28.10
2023-05-15T01:13:04.015Z,28.17
2023-05-15T01:15:31.582Z,23.50
2023-05-15T01:17:59.134Z,24.50
2023-05-15T01:20:27.457Z,25.00
2023-05-15T01:23:09.833Z,22.58
2023-05-15T01:25:57.379Z,24.33
2023-05-15T01:28:49.096Z,27.42
2023-05-15T01:31:19.380Z,24.05
2023-05-15T01:33:47.752Z,24.40
2023-05-15T01:36:19.057Z,24.08
2023-05-15T01:38:52.101Z,21.73
2023-05-15T01:41:22.384Z,23.05
2023-05-15T01:43:55.667Z,20.38
2023-05-15T01:46:23.859Z,20.25
2023-05-15T01:48:51.421Z,21.77
2023-05-15T01:51:19.319Z,21.67
2023-05-15T01:53:46.874Z,27.50
2023-05-15T01:56:15.011Z,25.95
2023-05-15T01:58:42.675Z,25.33
2023-05-15T02:01:10.034Z,26.13
2023-05-15T02:03:37.729Z,21.52
2023-05-15T02:06:06.010Z,22.33
2023-05-15T02:08:33.562Z,23.35
2023-05-15T02:11:01.562Z,26.10
2023-05-15T02:13:29.506Z,24.42
2023-05-15T02:15:57.156Z,20.52
2023-05-15T02:18:28.542Z,24.10
2023-05-15T02:20:58.191Z,21.20
2023-05-15T02:23:25.638Z,22.13
2023-05-15T02:26:26.717Z,22.67
2023-05-15T02:29:14.211Z,25.17
2023-05-15T02:31:51.558Z,29.13
2023-05-15T02:34:42.965Z,25.67
2023-05-15T02:37:13.644Z,26.30
2023-05-15T02:39:42.870Z,31.98
2023-05-15T02:42:10.424Z,26.00
2023-05-15T02:44:38.764Z,24.67
2023-05-15T02:47:06.340Z,23.05
2023-05-15T02:49:34.375Z,23.17
2023-05-15T02:52:01.882Z,25.70
2023-05-15T02:54:29.602Z,19.45
2023-05-15T02:56:57.172Z,21.77
2023-05-15T02:59:24.733Z,15.38
2023-05-15T03:01:52.365Z,15.90
2023-05-15T03:04:20.735Z,13.85
2023-05-15T03:06:48.620Z,19.77
2023-05-15T03:09:16.684Z,15.93
2023-05-15T03:11:44.198Z,18.52
2023-05-15T03:14:11.806Z,17.10
2023-05-15T03:16:39.503Z,15.13
2023-05-15T03:19:07.058Z,14.82
2023-05-15T03:21:35.203Z,17.52
2023-05-15T03:24:02.984Z,17.33
2023-05-15T03:26:30.571Z,19.05
2023-05-15T03:28:58.123Z,18.20
2023-05-15T03:31:25.889Z,13.75
2023-05-15T03:33:53.800Z,17.15
2023-05-15T03:36:22.677Z,16.25
2023-05-15T03:38:50.357Z,19.95
2023-05-15T03:41:17.902Z,16.55
2023-05-15T03:43:45.423Z,16.98
2023-05-15T03:46:13.173Z,13.82
2023-05-15T03:48:41.942Z,12.32
2023-05-15T03:51:09.466Z,12.80
2023-05-15T03:53:37.502Z,17.27
2023-05-15T03:56:05.563Z,16.10
2023-05-15T03:58:33.148Z,16.70
2023-05-15T04:01:00.734Z,15.75
2023-05-15T04:03:28.354Z,15.07
2023-05-15T04:05:55.896Z,17.70
2023-05-15T04:08:23.478Z,20.38
2023-05-15T04:10:51.945Z,17.73
2023-05-15T04:13:19.440Z,24.65
2023-05-15T04:15:47.633Z,27.40
2023-05-15T04:18:16.440Z,25.05
2023-05-15T04:20:43.938Z,34.13
2023-05-15T04:23:11.590Z,25.50
2023-05-15T04:25:39.721Z,30.35
2023-05-15T04:28:07.510Z,30.95
2023-05-15T04:30:36.096Z,35.35
2023-05-15T04:33:04.267Z,43.58
2023-05-15T04:35:31.837Z,33.30
2023-05-15T04:37:59.549Z,30.38
2023-05-15T04:40:27.038Z,23.33
2023-05-15T04:42:54.553Z,28.67
2023-05-15T04:45:22.026Z,22.63
2023-05-15T04:47:49.649Z,21.10
2023-05-15T04:50:17.164Z,20.15
2023-05-15T04:52:45.763Z,18.65
2023-05-15T04:55:14.214Z,25.27
2023-05-15T04:57:41.784Z,19.65
2023-05-15T05:00:14.408Z,19.52
2023-05-15T05:02:43.576Z,16.25
2023-05-15T05:05:11.175Z,13.50
2023-05-15T05:07:39.594Z,22.23
2023-05-15T05:10:08.050Z,19.42
2023-05-15T05:12:36.268Z,14.07
2023-05-15T05:15:04.213Z,13.07
2023-05-15T05:17:32.655Z,15.40
2023-05-15T05:20:00.252Z,15.05
2023-05-15T05:22:27.859Z,17.13
2023-05-15T05:24:56.351Z,12.07
2023-05-15T05:27:23.880Z,12.60
2023-05-15T05:29:53.474Z,11.00
2023-05-15T05:32:21.097Z,12.25
2023-05-15T05:34:48.648Z,13.30
2023-05-15T05:37:16.270Z,13.75
2023-05-15T05:39:43.748Z,20.55
2023-05-15T05:42:11.251Z,16.55
2023-05-15T05:44:39.090Z,22.75
2023-05-15T05:47:06.730Z,23.42
2023-05-15T05:49:34.528Z,16.92
2023-05-15T05:52:07.983Z,19.60
2023-05-15T05:54:35.531Z,20.90
2023-05-15T05:57:03.115Z,21.15
2023-05-15T05:59:31.239Z,20.15
2023-05-15T06:01:58.842Z,20.00
2023-05-15T06:04:26.860Z,25.92
2023-05-15T06:06:54.812Z,22.00
2023-05-15T06:09:22.940Z,20.63
2023-05-15T06:11:50.800Z,23.80
2023-05-15T06:14:19.396Z,21.92
2023-05-15T06:16:47.146Z,29.90
2023-05-15T06:19:14.978Z,23.58
2023-05-15T06:21:42.689Z,24.70
2023-05-15T06:24:10.234Z,27.10
2023-05-15T06:26:37.764Z,26.20
2023-05-15T06:29:05.373Z,24.45
2023-05-15T06:31:33.092Z,22.30
2023-05-15T06:34:02.458Z,23.73
2023-05-15T06:36:30.521Z,21.38
2023-05-15T19:27:13.489Z,13.57
2023-05-15T19:29:42.890Z,16.75
2023-05-15T19:32:10.651Z,15.40
2023-05-15T19:34:38.183Z,14.20
2023-05-15T19:37:06.038Z,10.80
2023-05-15T19:39:33.902Z,12.68
2023-05-15T19:42:01.550Z,11.38
2023-05-15T19:44:29.068Z,12.95
2023-05-15T19:46:56.598Z,13.68
2023-05-15T19:49:24.091Z,13.27
2023-05-15T19:51:52.104Z,11.35
2023-05-15T19:54:19.591Z,10.02
2023-05-15T19:56:46.997Z,16.52
2023-05-15T19:59:14.733Z,14.25
2023-05-15T20:01:42.378Z,10.00
2023-05-15T20:04:09.937Z,11.85
2023-05-15T20:06:38.147Z,10.88
2023-05-15T20:09:06.053Z,8.35
2023-05-15T20:11:34.208Z,10.48
2023-05-15T20:14:01.973Z,12.23
2023-05-15T20:16:29.786Z,12.75
2023-05-15T20:18:57.439Z,8.52
2023-05-15T20:21:25.291Z,6.72
2023-05-15T20:23:52.767Z,9.75
2023-05-15T20:26:22.343Z,12.60
2023-05-15T20:28:49.975Z,11.68
2023-05-15T20:31:17.679Z,16.40
2023-05-15T20:33:45.231Z,10.57
2023-05-15T20:36:13.716Z,10.23
2023-05-15T20:38:41.616Z,10.60
2023-05-15T20:41:09.101Z,8.82
2023-05-15T20:43:39.058Z,8.77
2023-05-15T20:46:08.904Z,14.65
2023-05-15T20:48:36.565Z,13.80
2023-05-15T20:51:04.205Z,7.57
2023-05-15T20:53:31.724Z,11.73
2023-05-15T20:55:59.867Z,8.43
2023-05-15T20:58:27.692Z,7.95
2023-05-15T21:00:55.613Z,12.55
2023-05-15T21:03:23.399Z,10.40
2023-05-15T21:05:51.225Z,11.13
2023-05-15T21:08:19.522Z,8.05
2023-05-15T21:10:51.266Z,9.75
2023-05-15T21:13:18.860Z,9.88
2023-05-15T21:15:46.318Z,8.82
2023-05-15T21:18:13.918Z,8.18
2023-05-15T21:20:41.872Z,8.13
2023-05-15T21:23:09.410Z,10.60
2023-05-15T21:25:37.784Z,9.00
2023-05-15T21:28:05.401Z,7.85
2023-05-15T21:30:33.236Z,9.90
2023-05-15T21:33:00.899Z,6.15
2023-05-15T21:35:29.110Z,11.13
2023-05-15T21:37:56.779Z,10.82
2023-05-15T21:40:24.241Z,6.57
2023-05-15T21:42:52.653Z,7.63
2023-05-15T21:45:20.836Z,7.72
2023-05-15T21:47:48.605Z,6.55
2023-05-15T21:50:16.289Z,6.28
2023-05-15T21:52:43.838Z,8.27
2023-05-15T21:55:11.506Z,6.82
2023-05-15T21:57:39.173Z,7.22
2023-05-15T22:00:08.368Z,5.97
2023-05-15T22:02:36.200Z,10.60
2023-05-15T22:05:03.953Z,9.30
2023-05-15T22:07:31.609Z,8.93
2023-05-15T22:09:59.231Z,9.70
2023-05-15T22:12:26.807Z,10.57
2023-05-15T22:14:58.973Z,8.40
2023-05-15T22:17:29.310Z,10.23
2023-05-15T22:20:07.317Z,8.98
2023-05-15T22:22:35.623Z,12.95
2023-05-15T22:25:04.357Z,8.43
2023-05-15T22:27:33.021Z,8.95
2023-05-15T22:30:01.010Z,7.57
2023-05-15T22:32:28.694Z,7.45
2023-05-15T22:34:56.291Z,9.85
2023-05-15T22:37:23.974Z,7.20
2023-05-15T22:39:51.607Z,11.48
2023-05-15T22:42:19.385Z,12.63
2023-05-15T22:44:46.930Z,14.88
2023-05-15T22:47:14.701Z,9.40
2023-05-15T22:49:42.154Z,13.98
2023-05-15T22:52:12.145Z,9.15
2023-05-15T22:54:41.084Z,14.43
2023-05-15T22:57:09.008Z,11.70
2023-05-15T22:59:36.779Z,11.32
2023-05-15T23:02:04.401Z,14.10
2023-05-15T23:04:31.950Z,14.32
2023-05-15T23:06:59.502Z,11.18
2023-05-15T23:09:27.343Z,12.85
2023-05-15T23:11:54.894Z,15.18
2023-05-15T23:14:22.519Z,10.63
2023-05-15T23:16:50.046Z,15.38
2023-05-15T23:19:17.700Z,11.85
2023-05-15T23:21:45.538Z,11.70
2023-05-15T23:24:12.983Z,12.52
2023-05-15T23:26:40.754Z,14.82
2023-05-15T23:29:08.640Z,13.90
2023-05-15T23:31:36.335Z,12.95
2023-05-15T23:34:04.026Z,14.43
2023-05-15T23:36:31.629Z,16.95
2023-05-15T23:38:59.062Z,19.05
2023-05-15T23:41:26.794Z,14.10
2023-05-15T23:43:54.409Z,16.75
2023-05-15T23:46:22.009Z,14.93
2023-05-15T23:48:49.552Z,18.73
2023-05-15T23:51:17.282Z,19.90
2023-05-15T23:53:44.858Z,17.35
2023-05-15T23:56:12.400Z,18.88
2023-05-15T23:58:40.148Z,22.55
